Time;durP1;ratioP1;P1;durP2;ratioP2;P2;SDS_P1;SDS_P2;PMS_P1;PMS_P2;Temp;Humidity;BMP_temperature;BMP_pressure;BME280_temperature;BME280_humidity;BME280_pressure;Samples;Min_cycle;Max_cycle;Signal;HPM_P1;HPM_P2
2021/01/24 00:02:23;;;;;;;12.52;4.47;;;3.20;99.90;;;;;;5038779;28;20082;-73
2021/01/24 00:04:49;;;;;;;11.32;4.47;;;3.20;99.90;;;;;;5021693;28;20029;-73
2021/01/24 00:07:15;;;;;;;10.13;4.75;;;3.10;99.90;;;;;;5036631;28;20069;-73
2021/01/24 00:09:44;;;;;;;18.90;5.22;;;3.10;99.90;;;;;;5036426;28;20087;-73
2021/01/24 00:12:09;;;;;;;10.98;4.32;;;3.80;99.90;;;;;;5018698;28;20535;-74
2021/01/24 00:14:35;;;;;;;13.45;4.53;;;3.00;99.90;;;;;;5036331;28;20156;-74
2021/01/24 00:17:00;;;;;;;14.85;5.50;;;3.00;99.90;;;;;;5037096;28;20049;-74
2021/01/24 00:19:26;;;;;;;11.77;5.35;;;3.20;99.90;;;;;;5036993;28;20361;-74
2021/01/24 00:21:51;;;;;;;9.82;3.95;;;3.00;99.90;;;;;;5018807;28;20017;-74
2021/01/24 00:24:17;;;;;;;12.00;4.63;;;3.00;99.90;;;;;;5047667;28;20108;-73
2021/01/24 00:26:43;;;;;;;13.68;4.20;;;3.00;99.90;;;;;;5034060;28;20068;-74
2021/01/24 00:29:08;;;;;;;9.95;4.15;;;3.00;99.90;;;;;;5018478;28;20022;-74
2021/01/24 00:31:34;;;;;;;11.00;4.15;;;2.90;99.90;;;;;;5037248;28;20075;-74
2021/01/24 00:34:00;;;;;;;9.80;3.97;;;2.90;99.90;;;;;;5036373;28;20460;-74
2021/01/24 00:36:25;;;;;;;9.82;4.22;;;2.90;99.90;;;;;;5018252;28;20437;-74
2021/01/24 00:38:51;;;;;;;8.43;3.90;;;2.90;99.90;;;;;;5047597;28;20029;-74
2021/01/24 00:41:16;;;;;;;10.15;3.80;;;2.90;99.90;;;;;;5047515;28;20498;-74
2021/01/24 00:43:42;;;;;;;12.05;4.35;;;2.90;99.90;;;;;;5055409;28;20364;-74
2021/01/24 00:46:08;;;;;;;10.98;3.97;;;2.90;99.90;;;;;;5038176;28;20013;-74
2021/01/24 00:48:35;;;;;;;10.73;3.75;;;2.90;99.90;;;;;;5056177;28;20025;-74
2021/01/24 00:51:02;;;;;;;12.40;4.32;;;2.80;99.90;;;;;;5049998;28;20017;-74
2021/01/24 00:53:28;;;;;;;11.98;3.78;;;2.80;99.90;;;;;;5035855;28;20032;-74
2021/01/24 00:55:54;;;;;;;15.57;4.22;;;2.80;99.90;;;;;;5017932;28;20022;-74
2021/01/24 00:58:20;;;;;;;7.57;3.55;;;2.80;99.90;;;;;;5035792;28;20129;-74
2021/01/24 01:00:45;;;;;;;8.13;2.78;;;2.90;99.90;;;;;;5020941;28;20576;-74
2021/01/24 01:03:11;;;;;;;9.70;3.05;;;2.90;99.90;;;;;;5037791;28;20029;-74
2021/01/24 01:05:38;;;;;;;10.98;3.70;;;2.90;99.90;;;;;;5037597;28;20104;-74
2021/01/24 01:08:04;;;;;;;8.35;3.45;;;2.80;99.90;;;;;;5050268;28;20101;-75
2021/01/24 01:10:30;;;;;;;8.57;2.92;;;2.80;99.90;;;;;;5036046;28;20025;-74
2021/01/24 01:12:56;;;;;;;6.90;2.67;;;2.90;99.90;;;;;;5055567;28;20025;-74
2021/01/24 01:15:23;;;;;;;10.25;2.95;;;2.90;99.90;;;;;;5055624;28;20083;-74
2021/01/24 01:17:49;;;;;;;6.10;3.00;;;2.90;99.90;;;;;;5037330;28;20067;-75
2021/01/24 01:20:15;;;;;;;10.27;3.70;;;2.80;99.90;;;;;;5055368;28;20029;-74
2021/01/24 01:22:40;;;;;;;8.98;2.58;;;2.80;99.90;;;;;;5018634;28;20064;-74
2021/01/24 01:25:06;;;;;;;8.52;3.00;;;2.80;99.90;;;;;;5017326;28;20566;-75
2021/01/24 01:27:32;;;;;;;9.60;3.63;;;2.80;99.90;;;;;;5017501;28;20029;-74
2021/01/24 01:29:57;;;;;;;14.75;3.75;;;2.80;99.90;;;;;;5035341;28;20018;-74
2021/01/24 01:32:23;;;;;;;9.50;3.60;;;2.80;99.90;;;;;;5051025;28;20489;-74
2021/01/24 01:34:48;;;;;;;7.95;2.42;;;2.80;99.90;;;;;;5055689;28;20425;-74
2021/01/24 01:37:14;;;;;;;10.55;3.42;;;2.80;99.90;;;;;;5036809;28;20134;-74
2021/01/24 01:39:39;;;;;;;7.72;3.08;;;2.70;99.90;;;;;;5036296;28;20017;-74
2021/01/24 01:42:15;;;;;;;8.93;2.85;;;2.70;99.90;;;;;;5041037;28;20079;-74
2021/01/24 01:44:41;;;;;;;7.53;2.53;;;2.70;99.90;;;;;;5034925;28;20030;-74
2021/01/24 01:47:09;;;;;;;8.68;3.17;;;2.70;99.90;;;;;;5034840;28;20064;-74
2021/01/24 01:49:35;;;;;;;6.55;2.95;;;2.70;99.90;;;;;;5034571;28;20021;-74
2021/01/24 01:52:01;;;;;;;7.53;2.80;;;2.70;99.90;;;;;;5046999;28;20053;-74
2021/01/24 01:54:27;;;;;;;10.35;3.45;;;2.70;99.90;;;;;;5036831;28;20083;-74
2021/01/24 01:56:53;;;;;;;12.63;4.30;;;2.70;99.90;;;;;;5036700;28;20027;-74
2021/01/24 01:59:20;;;;;;;9.32;3.00;;;2.70;99.90;;;;;;5036441;28;20075;-74
2021/01/24 02:02:03;;;;;;;6.78;2.95;;;2.70;99.90;;;;;;5044154;28;20030;-74
2021/01/24 02:04:49;;;;;;;15.70;3.30;;;2.70;99.90;;;;;;5034514;28;20068;-74
2021/01/24 02:07:40;;;;;;;8.35;3.70;;;2.70;99.90;;;;;;5034686;28;20076;-74
2021/01/24 02:10:33;;;;;;;8.85;2.85;;;2.70;99.90;;;;;;5011908;28;20029;-74
2021/01/24 02:13:10;;;;;;;7.93;2.95;;;2.70;99.90;;;;;;5037658;28;20033;-74
2021/01/24 02:15:37;;;;;;;12.73;3.50;;;2.70;99.90;;;;;;5054550;28;20031;-74
2021/01/24 02:18:05;;;;;;;8.80;3.63;;;2.70;99.90;;;;;;5054519;28;20189;-74
2021/01/24 02:20:48;;;;;;;7.23;2.70;;;2.70;99.90;;;;;;5053769;28;20487;-75
2021/01/24 02:23:20;;;;;;;7.47;2.88;;;2.70;99.90;;;;;;5016205;28;20036;-75
2021/01/24 02:26:09;;;;;;;7.00;2.75;;;2.70;99.90;;;;;;5034014;28;20032;-74
2021/01/24 02:29:01;;;;;;;11.93;3.60;;;2.70;99.90;;;;;;5016644;28;20018;-74
2021/01/24 02:31:28;;;;;;;11.75;2.92;;;2.70;99.90;;;;;;5040969;28;20021;-74
2021/01/24 02:33:55;;;;;;;6.03;2.58;;;2.70;99.90;;;;;;5036289;28;20111;-75
2021/01/24 02:36:21;;;;;;;5.50;2.55;;;2.70;99.90;;;;;;5054784;28;20078;-75
2021/01/24 02:38:48;;;;;;;10.48;2.63;;;2.70;99.90;;;;;;5025331;28;20426;-74
2021/01/24 02:41:15;;;;;;;8.18;2.28;;;2.70;99.90;;;;;;5021786;28;20534;-74
2021/01/24 02:43:59;;;;;;;7.18;2.30;;;2.70;99.90;;;;;;5035447;28;20056;-73
2021/01/24 02:46:25;;;;;;;7.75;2.00;;;2.80;99.90;;;;;;5053878;28;20021;-73
2021/01/24 02:48:52;;;;;;;11.90;3.08;;;2.80;99.90;;;;;;5054340;28;20464;-73
2021/01/24 02:51:19;;;;;;;10.82;3.13;;;2.70;99.90;;;;;;5048113;28;20030;-73
2021/01/24 02:53:46;;;;;;;8.25;2.47;;;2.70;99.90;;;;;;5034011;28;20021;-73
2021/01/24 02:56:12;;;;;;;9.52;2.33;;;2.70;99.90;;;;;;5033975;28;20029;-73
2021/01/24 02:58:39;;;;;;;7.80;2.05;;;2.70;99.90;;;;;;5026488;28;20032;-73
2021/01/24 03:01:05;;;;;;;5.13;1.70;;;2.70;99.90;;;;;;5031769;28;20495;-73
2021/01/24 03:03:30;;;;;;;4.82;1.88;;;2.60;99.90;;;;;;5033464;28;20127;-73
2021/01/24 03:05:56;;;;;;;7.85;2.45;;;2.60;99.90;;;;;;5016277;28;20045;-73
2021/01/24 03:08:22;;;;;;;4.72;2.28;;;2.60;99.90;;;;;;5034286;28;20065;-74
2021/01/24 03:10:48;;;;;;;7.55;2.67;;;2.60;99.90;;;;;;5034316;28;20017;-74
2021/01/24 03:13:37;;;;;;;6.00;1.88;;;2.60;99.90;;;;;;5016016;28;20049;-75
2021/01/24 03:16:03;;;;;;;5.30;1.63;;;2.60;99.90;;;;;;5033534;28;20474;-75
2021/01/24 03:18:33;;;;;;;3.95;1.65;;;3.20;99.90;;;;;;5040465;28;20098;-75
2021/01/24 03:21:00;;;;;;;12.60;3.13;;;2.60;99.90;;;;;;5015618;28;20075;-75
2021/01/24 03:23:26;;;;;;;6.72;1.58;;;2.60;99.90;;;;;;5015364;28;20099;-75
2021/01/24 03:25:53;;;;;;;8.77;2.00;;;2.60;99.90;;;;;;5033348;28;20021;-75
2021/01/24 03:28:19;;;;;;;8.93;1.52;;;2.60;99.90;;;;;;5021543;28;20574;-75
2021/01/24 03:30:48;;;;;;;3.72;1.33;;;2.70;99.90;;;;;;5035144;28;20104;-74
2021/01/24 03:33:14;;;;;;;5.55;1.98;;;2.70;99.90;;;;;;5053619;28;20031;-75
2021/01/24 03:35:40;;;;;;;8.35;1.77;;;2.70;99.90;;;;;;5057727;28;20021;-75
2021/01/24 03:38:06;;;;;;;8.02;2.42;;;2.70;99.90;;;;;;5052670;28;20044;-75
2021/01/24 03:40:31;;;;;;;4.43;1.65;;;2.80;99.90;;;;;;5019327;28;20116;-75
2021/01/24 03:42:57;;;;;;;8.90;1.92;;;2.80;99.90;;;;;;5037375;28;20033;-75
2021/01/24 03:45:23;;;;;;;5.55;1.70;;;2.80;99.90;;;;;;5036924;28;20550;-75
2021/01/24 03:47:48;;;;;;;5.50;1.55;;;2.80;99.90;;;;;;5020361;28;20049;-74
2021/01/24 03:50:14;;;;;;;6.30;1.40;;;2.80;99.90;;;;;;5039215;28;20474;-75
2021/01/24 03:52:39;;;;;;;6.82;1.65;;;2.80;99.90;;;;;;5038562;28;20030;-75
2021/01/24 03:55:05;;;;;;;4.10;1.35;;;2.80;99.90;;;;;;5057352;28;20028;-75
2021/01/24 03:57:31;;;;;;;4.88;1.15;;;2.70;99.90;;;;;;5056764;28;20108;-75
2021/01/24 03:59:57;;;;;;;6.10;1.45;;;2.70;99.90;;;;;;5037372;28;20061;-75
2021/01/24 04:02:22;;;;;;;5.63;1.55;;;2.70;99.90;;;;;;5036748;28;20025;-75
2021/01/24 04:04:48;;;;;;;4.55;1.13;;;2.70;99.90;;;;;;5036779;28;20069;-75
2021/01/24 04:07:14;;;;;;;4.47;1.60;;;2.70;99.90;;;;;;5036903;28;20419;-75
2021/01/24 04:09:40;;;;;;;8.60;1.35;;;2.70;99.90;;;;;;5053640;28;20021;-75
2021/01/24 04:12:07;;;;;;;5.35;1.15;;;2.70;99.90;;;;;;5056290;28;20029;-75
2021/01/24 04:14:33;;;;;;;4.93;1.10;;;2.70;99.90;;;;;;5056446;28;20545;-75
2021/01/24 04:16:59;;;;;;;5.22;1.30;;;2.70;99.90;;;;;;5056570;28;20033;-75
2021/01/24 04:19:24;;;;;;;6.63;1.65;;;2.80;99.90;;;;;;5041618;28;20024;-75
2021/01/24 04:21:50;;;;;;;3.30;1.13;;;2.80;99.90;;;;;;5019070;28;20033;-75
2021/01/24 04:24:15;;;;;;;6.45;1.70;;;2.80;99.90;;;;;;5018485;28;20018;-75
2021/01/24 04:26:41;;;;;;;2.85;0.80;;;2.80;99.90;;;;;;5018930;28;20053;-75
2021/01/24 04:29:06;;;;;;;3.35;0.70;;;2.80;99.90;;;;;;5048262;28;20017;-75
2021/01/24 04:31:32;;;;;;;5.53;1.65;;;2.80;99.90;;;;;;5056070;28;20139;-75
2021/01/24 04:33:57;;;;;;;5.93;1.48;;;2.90;99.90;;;;;;5038105;28;20032;-75
2021/01/24 04:36:23;;;;;;;2.72;0.98;;;2.90;99.90;;;;;;5056236;28;20368;-75
2021/01/24 04:38:49;;;;;;;4.22;0.98;;;2.90;99.90;;;;;;5028652;28;20471;-75
2021/01/24 04:41:15;;;;;;;3.03;0.80;;;2.90;99.90;;;;;;5018302;28;20487;-75
2021/01/24 04:43:41;;;;;;;4.47;1.00;;;2.90;99.90;;;;;;5018062;28;20116;-75
2021/01/24 04:46:07;;;;;;;4.45;1.73;;;2.90;99.90;;;;;;5034519;28;20064;-75
2021/01/24 04:48:33;;;;;;;4.30;0.88;;;2.90;99.90;;;;;;5043091;28;20049;-75
2021/01/24 04:50:59;;;;;;;2.97;0.80;;;2.90;99.90;;;;;;5055732;28;20506;-75
2021/01/24 04:53:25;;;;;;;7.82;0.98;;;2.90;99.90;;;;;;5037536;28;20025;-75
2021/01/24 04:55:51;;;;;;;1.30;0.47;;;2.90;99.90;;;;;;5055684;28;20478;-75
2021/01/24 04:58:20;;;;;;;1.75;0.20;;;2.90;99.90;;;;;;5032452;28;20021;-75
2021/01/24 05:00:46;;;;;;;2.63;0.38;;;3.00;99.90;;;;;;5035741;28;20095;-75
2021/01/24 05:03:12;;;;;;;3.65;0.10;;;2.90;99.90;;;;;;5017512;28;20022;-75
2021/01/24 05:05:41;;;;;;;1.05;0.10;;;2.90;99.90;;;;;;5017713;28;20037;-75
2021/01/24 05:08:08;;;;;;;;;;;3.00;99.90;;;;;;5021634;28;20013;-75
2021/01/24 05:10:34;;;;;;;0.47;0.10;;;3.00;99.90;;;;;;5055215;28;20011;-74
2021/01/24 05:13:00;;;;;;;1.95;0.47;;;3.00;99.90;;;;;;5055172;28;20056;-75
2021/01/24 05:15:27;;;;;;;2.15;0.20;;;3.00;99.90;;;;;;5037095;28;20029;-75
2021/01/24 05:17:55;;;;;;;3.30;0.15;;;3.00;99.90;;;;;;5050970;28;20079;-75
2021/01/24 05:20:22;;;;;;;0.82;0.30;;;3.00;99.90;;;;;;5035217;28;20025;-75
2021/01/24 05:22:48;;;;;;;1.35;0.00;;;3.00;99.90;;;;;;5017242;28;20029;-75
2021/01/24 05:25:20;;;;;;;2.63;0.08;;;3.00;99.90;;;;;;5017611;28;20022;-74
2021/01/24 05:27:46;;;;;;;1.10;0.00;;;3.00;99.90;;;;;;5020102;28;20033;-75
2021/01/24 05:30:13;;;;;;;1.40;0.13;;;3.00;99.90;;;;;;5055140;28;20021;-75
2021/01/24 05:32:43;;;;;;;2.33;0.08;;;2.90;99.90;;;;;;5055129;28;20017;-75
2021/01/24 05:35:13;;;;;;;1.65;0.22;;;2.80;99.90;;;;;;5037402;28;20383;-75
2021/01/24 05:37:40;;;;;;;1.10;0.00;;;2.80;99.90;;;;;;5052603;28;20095;-75
2021/01/24 05:40:07;;;;;;;1.00;0.00;;;2.60;99.90;;;;;;5034650;28;20092;-75
2021/01/24 05:42:37;;;;;;;0.10;0.00;;;2.60;99.90;;;;;;5034637;28;20029;-75
2021/01/24 05:45:09;;;;;;;0.10;0.00;;;2.50;99.90;;;;;;5016861;28;20124;-75
2021/01/24 05:47:37;;;;;;;1.08;0.10;;;2.50;99.90;;;;;;5035455;28;20057;-75
2021/01/24 05:50:05;;;;;;;0.55;0.00;;;2.40;99.90;;;;;;5054707;28;20017;-75
2021/01/24 05:52:31;;;;;;;2.40;0.00;;;2.30;99.90;;;;;;5054447;28;20040;-75
2021/01/24 05:54:57;;;;;;;2.10;0.25;;;2.30;99.90;;;;;;5036537;28;20093;-75
2021/01/24 05:57:24;;;;;;;0.80;0.13;;;2.20;99.90;;;;;;5054393;28;20013;-75
2021/01/24 05:59:50;;;;;;;3.83;0.28;;;2.20;99.90;;;;;;5017450;28;20025;-75
2021/01/24 06:02:17;;;;;;;0.45;0.10;;;2.20;99.90;;;;;;5016792;28;20072;-75
2021/01/24 06:04:44;;;;;;;0.90;0.00;;;2.20;99.90;;;;;;5034828;28;20045;-75
2021/01/24 06:07:12;;;;;;;0.10;0.00;;;2.10;99.90;;;;;;5034250;28;20025;-75
2021/01/24 06:09:38;;;;;;;2.75;0.32;;;2.10;99.90;;;;;;5034243;28;20056;-75
2021/01/24 06:12:07;;;;;;;0.80;0.00;;;2.10;99.90;;;;;;5054721;28;20025;-75
2021/01/24 06:14:33;;;;;;;;;;;2.00;99.90;;;;;;5054442;28;20029;-75
2021/01/24 06:17:08;;;;;;;1.98;0.00;;;2.00;99.90;;;;;;5036800;28;20016;-75
2021/01/24 06:19:41;;;;;;;0.00;0.00;;;2.00;99.90;;;;;;5034438;28;20060;-75
2021/01/24 06:22:13;;;;;;;2.25;0.30;;;1.90;99.90;;;;;;5033915;28;20076;-75
2021/01/24 06:24:46;;;;;;;1.17;0.50;;;1.90;99.90;;;;;;5016484;28;20029;-75
2021/01/24 06:27:19;;;;;;;2.15;0.10;;;1.80;99.90;;;;;;5034168;28;20033;-75
2021/01/24 06:29:49;;;;;;;2.30;0.00;;;1.70;99.90;;;;;;5036346;28;20029;-75
2021/01/24 06:32:27;;;;;;;0.10;0.00;;;1.70;99.90;;;;;;5053625;28;20052;-75
2021/01/24 06:34:54;;;;;;;0.30;0.00;;;1.70;99.90;;;;;;5036010;28;20032;-75
2021/01/24 06:37:25;;;;;;;1.30;0.00;;;1.60;99.90;;;;;;5039352;28;20506;-75
2021/01/24 06:39:52;;;;;;;5.13;0.93;;;1.60;99.90;;;;;;5053927;28;20028;-75
2021/01/24 06:42:42;;;;;;;0.50;0.10;;;1.50;99.90;;;;;;5053908;28;20363;-75
2021/01/24 06:45:22;;;;;;;0.65;0.00;;;1.40;99.90;;;;;;5053418;28;20036;-75
2021/01/24 06:47:49;;;;;;;0.20;0.00;;;1.40;99.90;;;;;;5030555;28;20080;-75
2021/01/24 06:50:37;;;;;;;0.88;0.00;;;1.40;99.90;;;;;;5034212;28;20479;-75
2021/01/24 06:53:05;;;;;;;2.35;0.15;;;1.30;99.90;;;;;;5033657;28;20025;-75
2021/01/24 06:55:31;;;;;;;0.82;0.00;;;1.30;99.90;;;;;;5016701;28;20017;-75
2021/01/24 06:57:56;;;;;;;1.98;0.00;;;1.30;99.90;;;;;;5039515;28;20135;-75
2021/01/24 07:00:23;;;;;;;1.45;0.25;;;1.30;99.90;;;;;;5053833;28;20086;-75
2021/01/24 07:02:49;;;;;;;0.75;0.00;;;1.30;99.90;;;;;;5035421;28;20029;-75
2021/01/24 07:05:24;;;;;;;1.73;0.05;;;1.30;99.90;;;;;;5053879;28;20123;-75
2021/01/24 07:07:53;;;;;;;0.17;0.00;;;1.40;99.90;;;;;;5048198;28;20426;-75
2021/01/24 07:10:37;;;;;;;0.50;0.00;;;1.30;99.90;;;;;;5015380;28;20057;-75
2021/01/24 07:13:25;;;;;;;0.75;0.00;;;1.30;99.90;;;;;;5033742;28;20029;-75
2021/01/24 07:15:53;;;;;;;0.45;0.00;;;1.30;99.90;;;;;;5033465;28;20128;-75
2021/01/24 07:18:19;;;;;;;0.70;0.20;;;1.30;99.90;;;;;;5023763;28;20079;-75
2021/01/24 07:20:45;;;;;;;3.95;0.00;;;1.30;99.90;;;;;;5053184;28;20036;-75
2021/01/24 07:23:11;;;;;;;0.38;0.10;;;1.30;99.90;;;;;;5046578;28;20029;-75
2021/01/24 07:25:37;;;;;;;1.65;0.00;;;1.20;99.90;;;;;;5033724;28;20032;-75
2021/01/24 07:28:02;;;;;;;0.85;0.00;;;1.20;99.90;;;;;;5016894;28;20396;-75
2021/01/24 07:30:28;;;;;;;0.05;0.00;;;1.20;99.90;;;;;;5015962;28;20018;-75
2021/01/24 07:32:54;;;;;;;1.40;0.00;;;1.20;99.90;;;;;;5015429;28;20037;-75
2021/01/24 07:35:20;;;;;;;0.70;0.00;;;1.20;99.90;;;;;;5034158;28;20021;-75
2021/01/24 07:37:48;;;;;;;1.30;0.03;;;1.10;99.90;;;;;;5036296;28;20029;-75
2021/01/24 07:40:14;;;;;;;0.30;0.00;;;1.00;99.90;;;;;;5053071;28;20544;-74
2021/01/24 07:42:40;;;;;;;0.40;0.00;;;1.00;99.90;;;;;;5017924;28;20037;-74
2021/01/24 07:45:06;;;;;;;0.68;0.00;;;1.00;99.90;;;;;;5015585;28;20017;-74
2021/01/24 07:47:31;;;;;;;2.75;0.32;;;0.90;99.90;;;;;;5033230;28;20491;-74
2021/01/24 07:49:57;;;;;;;2.60;0.00;;;0.90;99.90;;;;;;5015557;28;20060;-74
2021/01/24 07:52:23;;;;;;;3.00;0.10;;;0.80;99.90;;;;;;5032891;28;20498;-74
2021/01/24 07:54:49;;;;;;;0.10;0.05;;;0.80;99.90;;;;;;5033008;28;20052;-74
2021/01/24 07:57:14;;;;;;;1.92;0.00;;;0.80;99.90;;;;;;5033167;28;20026;-74
2021/01/24 07:59:40;;;;;;;1.23;0.00;;;0.80;99.90;;;;;;5033652;28;20055;-74
2021/01/24 08:02:06;;;;;;;0.30;0.00;;;0.70;99.90;;;;;;5033056;28;20022;-74
2021/01/24 08:04:36;;;;;;;0.93;0.00;;;0.70;99.90;;;;;;5015563;28;20052;-74
2021/01/24 08:07:05;;;;;;;0.43;0.00;;;0.70;99.90;;;;;;5015729;28;20042;-74
2021/01/24 08:09:31;;;;;;;0.88;0.00;;;0.70;99.90;;;;;;5015062;28;20098;-74
2021/01/24 08:11:57;;;;;;;1.17;0.00;;;0.70;99.90;;;;;;5015562;28;20025;-74
2021/01/24 08:14:22;;;;;;;0.25;0.00;;;0.70;99.90;;;;;;5033860;28;20029;-74
2021/01/24 08:16:50;;;;;;;0.30;0.00;;;0.70;99.90;;;;;;5032726;28;20041;-74
2021/01/24 08:19:22;;;;;;;3.75;0.08;;;0.70;99.90;;;;;;5015386;28;20085;-75
2021/01/24 08:21:50;;;;;;;2.10;0.00;;;0.70;99.90;;;;;;5036718;28;20036;-74
2021/01/24 08:24:15;;;;;;;0.20;0.00;;;0.70;99.90;;;;;;5053030;28;20024;-75
2021/01/24 08:26:41;;;;;;;1.92;0.08;;;0.80;99.90;;;;;;5056520;28;20029;-74
2021/01/24 08:29:10;;;;;;;1.00;0.00;;;0.80;99.90;;;;;;5056556;28;20017;-74
2021/01/24 08:31:35;;;;;;;1.35;0.00;;;0.80;99.90;;;;;;5056479;28;20066;-74
2021/01/24 08:34:02;;;;;;;0.55;0.00;;;0.90;99.90;;;;;;5038587;28;20025;-75
2021/01/24 08:36:29;;;;;;;0.22;0.00;;;0.90;99.90;;;;;;5056414;28;20025;-75
2021/01/24 08:38:57;;;;;;;2.03;0.10;;;1.00;99.90;;;;;;5056736;28;20025;-75
2021/01/24 08:41:29;;;;;;;0.80;0.20;;;1.00;99.90;;;;;;5037897;28;20024;-74
2021/01/24 08:44:12;;;;;;;1.35;0.40;;;1.10;99.90;;;;;;5056133;28;20048;-75
2021/01/24 08:46:42;;;;;;;2.00;0.20;;;1.30;99.90;;;;;;5055621;28;20391;-75
2021/01/24 08:49:12;;;;;;;0.20;0.00;;;1.50;99.90;;;;;;5055911;28;20017;-75
2021/01/24 08:51:49;;;;;;;0.80;0.00;;;1.70;99.90;;;;;;5055536;28;20033;-75
2021/01/24 08:54:27;;;;;;;1.95;0.00;;;1.80;99.90;;;;;;5056124;28;20021;-74
2021/01/24 08:57:34;;;;;;;0.20;0.00;;;1.90;99.90;;;;;;5037526;28;20029;-75
2021/01/24 09:00:08;;;;;;;0.85;0.00;;;1.80;99.90;;;;;;4939411;29;20468;-74
2021/01/24 09:02:35;;;;;;;1.25;0.00;;;1.90;99.90;;;;;;5042499;28;20090;-75
2021/01/24 09:05:03;;;;;;;2.28;0.73;;;2.00;99.90;;;;;;5035871;28;20044;-74
2021/01/24 09:07:48;;;;;;;1.00;0.00;;;2.10;99.90;;;;;;5017758;28;20392;-75
2021/01/24 09:10:22;;;;;;;0.55;0.08;;;2.30;99.90;;;;;;5054997;28;20024;-74
2021/01/24 09:13:14;;;;;;;3.08;0.00;;;2.40;99.90;;;;;;5033053;28;20025;-74
2021/01/24 09:15:39;;;;;;;1.45;0.00;;;2.60;99.90;;;;;;5127816;23;20112;-74
2021/01/24 09:18:05;;;;;;;4.20;0.43;;;2.80;99.90;;;;;;5009467;28;20030;-75
2021/01/24 09:20:31;;;;;;;2.88;0.00;;;2.80;99.90;;;;;;4995821;28;20092;-75
2021/01/24 09:22:56;;;;;;;1.67;0.73;;;3.00;99.90;;;;;;4999091;28;20029;-75
2021/01/24 09:25:22;;;;;;;2.75;0.00;;;3.00;99.90;;;;;;5015291;28;20108;-75
2021/01/24 09:27:47;;;;;;;0.90;0.00;;;3.00;99.90;;;;;;5014247;28;20018;-75
2021/01/24 09:30:15;;;;;;;2.35;0.00;;;3.10;99.90;;;;;;5015806;28;20076;-75
2021/01/24 09:32:43;;;;;;;0.85;0.00;;;3.20;99.90;;;;;;5010725;28;20030;-74
2021/01/24 09:35:09;;;;;;;1.65;0.00;;;3.30;99.90;;;;;;4994399;28;20051;-75
2021/01/24 09:37:35;;;;;;;2.67;0.30;;;3.40;99.90;;;;;;4995262;28;20109;-75
2021/01/24 09:40:01;;;;;;;2.03;0.00;;;3.50;99.90;;;;;;5013711;28;20459;-74
2021/01/24 09:42:27;;;;;;;1.30;0.00;;;3.60;99.90;;;;;;5014620;28;20026;-75
2021/01/24 09:44:52;;;;;;;3.45;0.75;;;3.50;99.90;;;;;;4995065;28;20451;-73
2021/01/24 09:47:21;;;;;;;1.23;0.00;;;3.60;99.90;;;;;;4994119;28;20468;-73
2021/01/24 09:49:46;;;;;;;7.85;0.57;;;3.60;99.90;;;;;;4995337;28;20018;-74
2021/01/24 09:52:12;;;;;;;0.43;0.10;;;3.60;99.90;;;;;;4995098;28;20069;-74
2021/01/24 09:54:38;;;;;;;0.20;0.00;;;3.70;99.90;;;;;;4995513;28;20034;-74
2021/01/24 09:57:03;;;;;;;1.35;0.22;;;3.80;99.90;;;;;;5011381;28;20476;-74
2021/01/24 09:59:29;;;;;;;0.40;0.00;;;3.80;99.90;;;;;;5014711;28;20131;-74
2021/01/24 10:01:55;;;;;;;2.13;0.00;;;3.90;99.90;;;;;;5013505;28;20066;-74
2021/01/24 10:04:21;;;;;;;0.45;0.00;;;3.90;99.90;;;;;;4999460;28;20034;-74
2021/01/24 10:06:46;;;;;;;3.03;0.00;;;4.00;99.90;;;;;;4993857;28;20021;-74
2021/01/24 10:09:12;;;;;;;2.17;0.00;;;4.00;99.90;;;;;;4995523;28;20029;-74
2021/01/24 10:11:37;;;;;;;1.10;0.30;;;4.20;99.90;;;;;;4995586;28;20046;-74
2021/01/24 10:14:03;;;;;;;1.30;0.08;;;4.30;99.90;;;;;;5004995;28;20026;-74
2021/01/24 10:16:30;;;;;;;1.55;0.00;;;4.30;99.90;;;;;;5028588;28;20030;-74
2021/01/24 10:18:56;;;;;;;2.38;0.00;;;4.30;99.90;;;;;;5034642;28;20116;-74
2021/01/24 10:21:21;;;;;;;2.13;0.00;;;4.40;99.90;;;;;;5034212;28;20030;-74
2021/01/24 10:23:47;;;;;;;1.70;0.10;;;4.40;99.90;;;;;;5034079;28;20087;-74
2021/01/24 10:26:14;;;;;;;1.10;0.00;;;4.50;99.90;;;;;;5016459;28;20032;-75
2021/01/24 10:28:40;;;;;;;1.02;0.00;;;4.60;99.90;;;;;;5034080;28;20021;-75
2021/01/24 10:31:07;;;;;;;3.03;0.15;;;4.70;99.90;;;;;;5016359;28;20399;-75
2021/01/24 10:33:32;;;;;;;5.65;0.80;;;4.60;99.90;;;;;;5016301;28;20036;-75
2021/01/24 10:35:58;;;;;;;2.58;0.10;;;4.70;99.90;;;;;;5034207;28;20018;-74
2021/01/24 10:38:23;;;;;;;1.05;0.00;;;4.70;99.90;;;;;;5016286;28;20061;-75
2021/01/24 10:40:49;;;;;;;0.93;0.22;;;4.80;99.90;;;;;;5034115;28;20080;-75
2021/01/24 10:43:15;;;;;;;1.98;0.00;;;5.00;99.90;;;;;;5031537;28;20029;-77
2021/01/24 10:45:41;;;;;;;1.23;0.00;;;5.10;99.90;;;;;;5034183;28;20022;-76
2021/01/24 10:48:07;;;;;;;1.48;0.00;;;5.30;99.90;;;;;;5033734;28;20399;-76
2021/01/24 10:50:38;;;;;;;1.10;0.00;;;5.50;99.90;;;;;;5016851;28;20018;-76
2021/01/24 10:53:04;;;;;;;2.58;0.00;;;5.60;99.90;;;;;;5056815;23;20041;-77
2021/01/24 10:55:30;;;;;;;1.00;0.20;;;5.60;99.90;;;;;;5053779;28;20055;-73
2021/01/24 10:57:55;;;;;;;2.95;0.43;;;5.70;99.90;;;;;;5054482;28;20021;-72
2021/01/24 11:00:21;;;;;;;3.80;0.65;;;5.60;99.90;;;;;;5045168;28;20100;-71
2021/01/24 11:02:47;;;;;;;2.10;0.15;;;5.50;99.90;;;;;;5028262;28;20064;-71
2021/01/24 11:05:13;;;;;;;5.85;0.10;;;5.30;99.90;;;;;;5035916;28;20052;-72
2021/01/24 11:07:41;;;;;;;4.78;0.40;;;5.20;99.90;;;;;;5052452;28;20029;-71
2021/01/24 11:10:08;;;;;;;1.00;0.30;;;4.90;99.90;;;;;;5053971;28;20100;-72
2021/01/24 11:12:34;;;;;;;1.65;0.10;;;4.80;99.90;;;;;;5054190;28;20021;-73
2021/01/24 11:15:05;;;;;;;2.47;0.10;;;4.60;99.90;;;;;;5035982;28;20053;-72
2021/01/24 11:17:31;;;;;;;5.50;0.40;;;4.40;99.90;;;;;;5041547;28;20060;-72
2021/01/24 11:19:57;;;;;;;6.25;0.10;;;4.30;99.90;;;;;;5034883;28;20033;-72
2021/01/24 11:22:23;;;;;;;2.10;0.35;;;4.20;99.90;;;;;;5033826;28;20115;-72
2021/01/24 11:24:48;;;;;;;1.63;0.10;;;4.00;99.90;;;;;;5033391;28;20029;-72
2021/01/24 11:27:14;;;;;;;3.20;0.00;;;3.90;99.90;;;;;;5033208;28;20021;-71
2021/01/24 11:29:41;;;;;;;2.30;0.10;;;3.80;99.90;;;;;;5038135;28;20025;-71
2021/01/24 11:32:07;;;;;;;4.80;0.25;;;3.70;99.90;;;;;;5035252;28;20022;-71
2021/01/24 11:34:33;;;;;;;0.88;0.10;;;3.70;99.90;;;;;;5053407;28;20540;-72
2021/01/24 11:36:59;;;;;;;2.33;0.20;;;3.90;99.90;;;;;;5035002;28;20025;-73
2021/01/24 11:39:26;;;;;;;4.85;0.40;;;4.10;99.90;;;;;;5049713;28;20022;-72
2021/01/24 11:41:51;;;;;;;2.67;0.77;;;4.30;99.90;;;;;;5033139;28;20029;-72
2021/01/24 11:44:17;;;;;;;6.38;0.60;;;4.40;99.90;;;;;;5052152;28;20044;-72
2021/01/24 11:46:43;;;;;;;3.65;0.35;;;4.40;99.90;;;;;;5035236;28;20023;-72
2021/01/24 11:49:08;;;;;;;3.78;0.90;;;4.40;99.90;;;;;;5034339;28;20017;-72
2021/01/24 11:51:34;;;;;;;6.53;0.32;;;4.50;99.90;;;;;;5032962;28;20625;-71
2021/01/24 11:54:00;;;;;;;7.20;0.95;;;4.60;99.90;;;;;;5032976;28;20064;-72
2021/01/24 11:56:26;;;;;;;9.82;1.27;;;4.70;99.90;;;;;;5036745;28;20057;-72
2021/01/24 11:58:51;;;;;;;7.55;1.75;;;4.90;99.90;;;;;;5019065;28;20026;-72
2021/01/24 12:01:17;;;;;;;6.85;0.50;;;4.90;99.90;;;;;;5037746;28;20064;-72
2021/01/24 12:03:42;;;;;;;2.38;0.77;;;5.00;99.90;;;;;;5038736;28;20117;-72
2021/01/24 12:06:08;;;;;;;6.13;0.60;;;5.10;99.90;;;;;;5056254;28;20029;-72
2021/01/24 12:08:34;;;;;;;4.97;0.60;;;5.10;99.90;;;;;;5038686;28;20025;-72
2021/01/24 12:10:59;;;;;;;4.47;1.05;;;5.10;99.90;;;;;;5038330;28;20060;-72
2021/01/24 12:13:25;;;;;;;3.15;0.65;;;5.00;99.90;;;;;;5057123;28;20040;-73
2021/01/24 12:15:50;;;;;;;5.25;0.95;;;5.10;99.90;;;;;;5039150;28;20025;-72
2021/01/24 12:18:16;;;;;;;12.10;1.30;;;5.20;99.90;;;;;;5057058;28;20024;-73
2021/01/24 12:20:42;;;;;;;8.35;0.98;;;5.20;99.90;;;;;;5056670;28;20021;-74
2021/01/24 12:23:08;;;;;;;5.22;0.60;;;5.20;99.90;;;;;;5056407;28;20075;-73
2021/01/24 12:25:33;;;;;;;3.10;0.90;;;5.30;99.90;;;;;;5030746;28;20124;-74
2021/01/24 12:27:59;;;;;;;8.13;1.13;;;5.30;99.90;;;;;;5056682;28;20031;-72
2021/01/24 12:30:25;;;;;;;6.63;0.88;;;5.40;99.90;;;;;;5055960;28;20013;-73
2021/01/24 12:32:50;;;;;;;4.65;0.93;;;5.50;99.90;;;;;;5056311;28;20032;-73
2021/01/24 12:35:16;;;;;;;3.65;1.52;;;5.70;99.90;;;;;;5038398;28;20021;-72
2021/01/24 12:37:42;;;;;;;2.42;0.65;;;5.90;99.90;;;;;;5038142;28;20028;-73
2021/01/24 12:40:08;;;;;;;5.40;0.55;;;6.10;99.90;;;;;;5055620;28;20032;-73
2021/01/24 12:42:34;;;;;;;2.72;0.70;;;6.20;98.80;;;;;;5039300;28;20078;-73
2021/01/24 12:45:00;;;;;;;6.95;0.70;;;6.30;98.30;;;;;;5054208;28;20028;-73
2021/01/24 12:47:25;;;;;;;6.72;0.22;;;6.30;96.40;;;;;;5040925;28;20472;-73
2021/01/24 12:49:51;;;;;;;7.82;1.45;;;6.30;96.20;;;;;;5035927;28;20084;-73
2021/01/24 12:52:16;;;;;;;2.95;0.47;;;6.10;96.60;;;;;;5017885;28;20129;-72
2021/01/24 12:54:42;;;;;;;2.25;0.75;;;6.30;96.30;;;;;;5017976;28;20021;-72
2021/01/24 12:57:07;;;;;;;3.90;0.17;;;6.30;93.40;;;;;;5041662;28;20386;-72
2021/01/24 12:59:33;;;;;;;2.88;0.20;;;6.40;91.70;;;;;;5056181;28;20025;-72